Time;durP1;ratioP1;P1;durP2;ratioP2;P2;SDS_P1;SDS_P2;PMS_P1;PMS_P2;Temp;Humidity;BMP_temperature;BMP_pressure;BME280_temperature;BME280_humidity;BME280_pressure;Samples;Min_cycle;Max_cycle;Signal;HPM_P1;HPM_P2
2022/10/23 00:02:08;;;;;;;;;0.00;0.00;;;;;;;;4750942;30;29263;-96
2022/10/23 00:04:33;;;;;;;;;0.00;0.00;;;;;;;;4750705;30;28930;-96
2022/10/23 00:06:58;;;;;;;;;0.00;0.00;;;;;;;;4733816;30;29187;-96
2022/10/23 00:09:24;;;;;;;;;0.00;0.00;;;;;;;;4732388;30;30574;-96
2022/10/23 00:11:50;;;;;;;;;0.00;0.00;;;;;;;;4732884;30;28965;-96
2022/10/23 00:14:17;;;;;;;;;0.00;0.00;;;;;;;;4732834;30;28889;-96
2022/10/23 00:16:43;;;;;;;;;0.00;0.00;;;;;;;;4732945;30;29065;-96
2022/10/23 00:19:08;;;;;;;;;0.00;0.00;;;;;;;;4732270;30;30964;-96
2022/10/23 00:21:33;;;;;;;;;0.00;0.00;;;;;;;;4733640;30;29121;-96
2022/10/23 00:23:59;;;;;;;;;0.00;0.00;;;;;;;;4732253;30;28529;-96
2022/10/23 00:26:24;;;;;;;;;0.00;0.00;;;;;;;;4717767;30;29024;-96
2022/10/23 00:28:50;;;;;;;;;0.00;0.00;;;;;;;;4740336;30;30537;-95
2022/10/23 00:31:16;;;;;;;;;0.00;0.00;;;;;;;;4736666;30;29280;-96
2022/10/23 00:33:41;;;;;;;;;0.00;0.00;;;;;;;;4732773;30;29080;-96
2022/10/23 00:36:08;;;;;;;;;0.00;0.00;;;;;;;;4732628;30;28955;-96
2022/10/23 00:38:34;;;;;;;;;0.00;0.00;;;;;;;;4732576;30;30118;-96
2022/10/23 00:40:59;;;;;;;;;0.00;0.00;;;;;;;;4733408;30;28466;-96
2022/10/23 00:43:26;;;;;;;;;0.00;0.00;;;;;;;;4733009;30;28404;-96
2022/10/23 00:45:51;;;;;;;;;0.00;0.00;;;;;;;;4736484;30;28681;-96
2022/10/23 00:48:17;;;;;;;;;0.00;0.00;;;;;;;;4750360;30;29915;-95
2022/10/23 00:50:43;;;;;;;;;0.00;0.00;;;;;;;;4739677;30;28586;-96
2022/10/23 00:53:09;;;;;;;;;0.00;0.00;;;;;;;;4732718;30;27874;-96
2022/10/23 00:55:37;;;;;;;;;0.00;0.00;;;;;;;;4732231;30;27960;-96
2022/10/23 00:58:05;;;;;;;;;0.00;0.00;;;;;;;;4732770;30;30735;-96
2022/10/23 01:00:39;;;;;;;;;0.00;0.00;;;;;;;;4735840;30;28592;-96
2022/10/23 01:03:04;;;;;;;;;0.00;0.00;;;;;;;;4737336;30;28337;-96
2022/10/23 01:05:34;;;;;;;;;0.00;0.00;;;;;;;;4738457;30;28294;-96
2022/10/23 01:08:06;;;;;;;;;0.00;0.00;;;;;;;;4738824;30;29816;-96
2022/10/23 01:10:38;;;;;;;;;0.00;0.00;;;;;;;;4738477;30;28675;-96
2022/10/23 01:13:06;;;;;;;;;0.00;0.00;;;;;;;;4739424;30;28288;-95
2022/10/23 01:15:37;;;;;;;;;0.00;0.00;;;;;;;;4740122;30;28365;-96
2022/10/23 01:18:09;;;;;;;;;0.00;0.00;;;;;;;;4740184;30;30233;-95
2022/10/23 01:20:52;;;;;;;;;0.00;0.00;;;;;;;;4735731;30;28948;-96
2022/10/23 01:23:21;;;;;;;;;0.00;0.00;;;;;;;;4732432;30;28185;-96
2022/10/23 01:25:46;;;;;;;;;0.00;0.00;;;;;;;;4716971;30;28424;-96
2022/10/23 01:28:22;;;;;;;;;0.00;0.00;;;;;;;;4732089;30;29637;-96
2022/10/23 01:30:48;;;;;;;;;0.00;0.00;;;;;;;;4732222;30;28990;-96
2022/10/23 01:33:23;;;;;;;;;0.00;0.00;;;;;;;;4732090;30;28339;-96
2022/10/23 01:35:51;;;;;;;;;0.00;0.00;;;;;;;;4731293;30;28479;-96
2022/10/23 01:38:19;;;;;;;;;0.00;0.00;;;;;;;;4731943;30;30604;-96
2022/10/23 01:40:52;;;;;;;;;0.00;0.00;;;;;;;;4731636;30;29381;-96
2022/10/23 01:43:24;;;;;;;;;0.00;0.00;;;;;;;;4731066;30;29172;-95
2022/10/23 01:45:54;;;;;;;;;0.00;0.00;;;;;;;;4731587;30;28875;-96
2022/10/23 01:48:23;;;;;;;;;0.00;0.00;;;;;;;;4743289;30;30334;-96
2022/10/23 01:50:52;;;;;;;;;0.00;0.00;;;;;;;;4731093;30;29255;-96
2022/10/23 01:53:17;;;;;;;;;0.00;0.00;;;;;;;;2459346;30;14442551;-95
2022/10/23 01:55:49;;;;;;;;;0.00;0.00;;;;;;;;3412459;30;13064364;-96
2022/10/23 01:58:37;;;;;;;;;0.00;0.00;;;;;;;;4676420;30;244860;-96
2022/10/23 02:01:04;;;;;;;;;0.00;0.00;;;;;;;;3708240;30;10089516;-96
2022/10/23 02:03:32;;;;;;;;;0.00;0.00;;;;;;;;3906723;30;15229522;-96
2022/10/23 02:05:57;;;;;;;;;0.00;0.00;;;;;;;;3803939;30;17494165;-96
2022/10/23 02:08:24;;;;;;;;;0.00;0.00;;;;;;;;4615134;30;275492;-96
2022/10/23 02:11:45;;;;;;;;;;;;;;;;;;3364953;30;38744198;-96
2022/10/23 02:15:02;;;;;;;;;0.00;0.00;;;;;;;;6;21213292;38251777;-96
2022/10/23 02:17:58;;;;;;;;;;;;;;;;;;404375;30;37532972;-96
2022/10/23 02:20:35;;;;;;;;;0.00;0.00;;;;;;;;858207;30;31589043;-96
2022/10/23 02:23:16;;;;;;;;;0.00;0.00;;;;;;;;2551685;30;30882935;-96
2022/10/23 02:25:47;;;;;;;;;0.00;0.00;;;;;;;;3768071;30;9485650;-96
2022/10/23 02:28:48;;;;;;;;;0.00;0.00;;;;;;;;4169740;30;16603016;-95
2022/10/23 02:31:22;;;;;;;;;0.00;0.00;;;;;;;;1377423;30;42478329;-96
2022/10/23 02:33:48;;;;;;;;;0.00;0.00;;;;;;;;4426227;30;3675820;-96
2022/10/23 02:36:16;;;;;;;;;0.00;0.00;;;;;;;;4610740;30;929516;-96
2022/10/23 02:38:44;;;;;;;;;0.00;0.00;;;;;;;;3619278;30;6159569;-96
2022/10/23 02:41:12;;;;;;;;;0.00;0.00;;;;;;;;4576360;30;906501;-96
2022/10/23 02:43:51;;;;;;;;;0.00;0.00;;;;;;;;4048643;30;8651240;-96
2022/10/23 02:46:33;;;;;;;;;0.00;0.00;;;;;;;;4675924;30;598029;-96
2022/10/23 02:49:14;;;;;;;;;0.00;0.00;;;;;;;;4718185;30;74421;-96
2022/10/23 02:51:39;;;;;;;;;0.00;0.00;;;;;;;;4729444;30;57030;-96
2022/10/23 02:54:13;;;;;;;;;0.00;0.00;;;;;;;;4730654;30;51526;-96
2022/10/23 02:56:49;;;;;;;;;0.00;0.00;;;;;;;;4725168;30;78322;-96
2022/10/23 02:59:34;;;;;;;;;0.00;0.00;;;;;;;;4738449;30;39222;-96
2022/10/23 03:02:31;;;;;;;;;0.00;0.00;;;;;;;;4730307;30;58954;-96
2022/10/23 03:05:04;;;;;;;;;0.00;0.00;;;;;;;;4752209;29;61481;-96
2022/10/23 03:07:35;;;;;;;;;0.00;0.00;;;;;;;;4713769;30;56780;-96
2022/10/23 03:10:01;;;;;;;;;0.00;0.00;;;;;;;;4736172;30;42379;-96
2022/10/23 03:12:36;;;;;;;;;0.00;0.00;;;;;;;;4745415;30;57999;-96
2022/10/23 03:15:02;;;;;;;;;0.00;0.00;;;;;;;;4744583;30;50206;-96
2022/10/23 03:17:27;;;;;;;;;0.00;0.00;;;;;;;;4749112;30;56779;-96
2022/10/23 03:19:55;;;;;;;;;0.00;0.00;;;;;;;;4748895;30;42963;-96
2022/10/23 03:22:26;;;;;;;;;0.00;0.00;;;;;;;;4752738;30;30931;-95
2022/10/23 03:25:00;;;;;;;;;0.00;0.00;;;;;;;;4752155;30;33059;-96
2022/10/23 03:27:25;;;;;;;;;0.00;0.00;;;;;;;;4751758;30;38382;-96
2022/10/23 03:29:50;;;;;;;;;0.00;0.00;;;;;;;;4744453;30;31908;-96
2022/10/23 03:32:16;;;;;;;;;0.00;0.00;;;;;;;;4732555;30;29615;-96
2022/10/23 03:34:41;;;;;;;;;0.00;0.00;;;;;;;;4717726;30;35042;-96
2022/10/23 03:37:09;;;;;;;;;0.00;0.00;;;;;;;;4732486;30;42294;-96
2022/10/23 03:39:35;;;;;;;;;0.00;0.00;;;;;;;;4740426;30;36439;-96
2022/10/23 03:42:00;;;;;;;;;0.00;0.00;;;;;;;;4742981;30;52826;-96
2022/10/23 03:44:25;;;;;;;;;0.00;0.00;;;;;;;;4518451;30;3498803;-96
2022/10/23 03:46:50;;;;;;;;;0.00;0.00;;;;;;;;4669147;30;519743;-95
2022/10/23 03:49:16;;;;;;;;;0.00;0.00;;;;;;;;4674298;30;728787;-96
2022/10/23 03:51:42;;;;;;;;;0.00;0.00;;;;;;;;4734022;30;74265;-96
2022/10/23 03:54:08;;;;;;;;;0.00;0.00;;;;;;;;4745309;30;45843;-96
2022/10/23 03:56:33;;;;;;;;;0.00;0.00;;;;;;;;4748712;30;39132;-96
2022/10/23 03:58:58;;;;;;;;;0.00;0.00;;;;;;;;4748024;30;39171;-95
2022/10/23 04:01:24;;;;;;;;;0.00;0.00;;;;;;;;4752144;30;30261;-96
2022/10/23 04:03:49;;;;;;;;;0.00;0.00;;;;;;;;4751801;30;34950;-96
2022/10/23 04:06:14;;;;;;;;;0.00;0.00;;;;;;;;4750757;30;48304;-96
2022/10/23 04:08:41;;;;;;;;;0.00;0.00;;;;;;;;4752588;30;47058;-96
2022/10/23 04:11:06;;;;;;;;;0.00;0.00;;;;;;;;4756477;30;30746;-96
2022/10/23 04:13:32;;;;;;;;;0.00;0.00;;;;;;;;4756426;30;43533;-96
2022/10/23 04:15:57;;;;;;;;;0.00;0.00;;;;;;;;4754143;30;45108;-96
2022/10/23 04:18:22;;;;;;;;;0.00;0.00;;;;;;;;4755229;30;38212;-96
2022/10/23 04:20:55;;;;;;;;;0.00;0.00;;;;;;;;4733962;30;51884;-95
2022/10/23 04:23:21;;;;;;;;;0.00;0.00;;;;;;;;4730186;30;35030;-95
2022/10/23 04:25:46;;;;;;;;;0.00;0.00;;;;;;;;4731776;30;30550;-95
2022/10/23 04:28:14;;;;;;;;;0.00;0.00;;;;;;;;4740889;30;31948;-94
2022/10/23 04:30:40;;;;;;;;;0.00;0.00;;;;;;;;4740829;30;32190;-94
2022/10/23 04:33:05;;;;;;;;;0.00;0.00;;;;;;;;4731231;30;43193;-95
2022/10/23 04:35:31;;;;;;;;;0.00;0.00;;;;;;;;4733804;30;31929;-95
2022/10/23 04:37:56;;;;;;;;;0.00;0.00;;;;;;;;4734413;30;32448;-93
2022/10/23 04:40:21;;;;;;;;;0.00;0.00;;;;;;;;4733597;30;32459;-95
2022/10/23 04:42:46;;;;;;;;;0.00;0.00;;;;;;;;4732952;30;29483;-94
2022/10/23 04:45:12;;;;;;;;;0.00;0.00;;;;;;;;4733266;30;29674;-94
2022/10/23 04:47:39;;;;;;;;;0.00;0.00;;;;;;;;4718908;30;32486;-94
2022/10/23 04:50:05;;;;;;;;;0.00;0.00;;;;;;;;4733000;30;32450;-94
2022/10/23 04:52:30;;;;;;;;;0.00;0.00;;;;;;;;4732571;30;29630;-94
2022/10/23 04:54:56;;;;;;;;;0.00;0.00;;;;;;;;4732096;30;29354;-93
2022/10/23 04:57:21;;;;;;;;;0.00;0.00;;;;;;;;4731374;30;30802;-94
2022/10/23 04:59:46;;;;;;;;;0.00;0.00;;;;;;;;4731869;30;31577;-94
2022/10/23 05:02:12;;;;;;;;;0.00;0.00;;;;;;;;4732205;30;28981;-93
2022/10/23 05:04:37;;;;;;;;;0.00;0.00;;;;;;;;4748290;30;29089;-94
2022/10/23 05:07:02;;;;;;;;;0.00;0.00;;;;;;;;4749776;30;30602;-93
2022/10/23 05:09:28;;;;;;;;;0.00;0.00;;;;;;;;4742200;30;30227;-94
2022/10/23 05:11:55;;;;;;;;;0.00;0.00;;;;;;;;4731838;30;28491;-94
2022/10/23 05:14:20;;;;;;;;;0.00;0.00;;;;;;;;4732481;30;28898;-94
2022/10/23 05:17:04;;;;;;;;;0.00;0.00;;;;;;;;4732164;30;30842;-94
2022/10/23 05:19:33;;;;;;;;;0.00;0.00;;;;;;;;4732187;30;30350;-96
2022/10/23 05:21:59;;;;;;;;;0.00;0.00;;;;;;;;4732339;30;29123;-96
2022/10/23 05:24:25;;;;;;;;;0.00;0.00;;;;;;;;4729287;30;29044;-92
2022/10/23 05:26:51;;;;;;;;;0.00;0.00;;;;;;;;4731020;30;30610;-94
2022/10/23 05:29:17;;;;;;;;;0.00;0.00;;;;;;;;4732614;30;30049;-94
2022/10/23 05:31:42;;;;;;;;;0.00;0.00;;;;;;;;4736319;30;29001;-94
2022/10/23 05:34:09;;;;;;;;;0.00;0.00;;;;;;;;4736343;30;29006;-95
2022/10/23 05:36:35;;;;;;;;;0.00;0.00;;;;;;;;4736636;30;31382;-94
2022/10/23 05:39:01;;;;;;;;;0.00;0.00;;;;;;;;4737290;30;29444;-94
2022/10/23 05:41:26;;;;;;;;;0.00;0.00;;;;;;;;4738585;30;29070;-94
2022/10/23 05:43:51;;;;;;;;;0.00;0.00;;;;;;;;4739524;30;28394;-94
2022/10/23 05:46:16;;;;;;;;;0.00;0.00;;;;;;;;4739553;30;30698;-95
2022/10/23 05:48:42;;;;;;;;;0.00;0.00;;;;;;;;4737886;30;29170;-94
2022/10/23 05:51:08;;;;;;;;;0.00;0.00;;;;;;;;4732398;30;29085;-94
2022/10/23 05:53:34;;;;;;;;;0.00;0.00;;;;;;;;4730957;30;29040;-94
2022/10/23 05:56:06;;;;;;;;;0.00;0.00;;;;;;;;4730955;30;31612;-95
2022/10/23 05:58:31;;;;;;;;;0.00;0.00;;;;;;;;4731340;30;29661;-95
2022/10/23 06:00:56;;;;;;;;;0.00;0.00;;;;;;;;4731441;30;28923;-95
2022/10/23 06:03:22;;;;;;;;;0.00;0.00;;;;;;;;4731347;30;28978;-94
2022/10/23 06:05:50;;;;;;;;;0.00;0.00;;;;;;;;4731227;30;31523;-95
2022/10/23 06:08:16;;;;;;;;;0.00;0.00;;;;;;;;4731182;30;29084;-95
2022/10/23 06:10:41;;;;;;;;;0.00;0.00;;;;;;;;4731274;30;28967;-96
2022/10/23 06:13:06;;;;;;;;;0.00;0.00;;;;;;;;4731049;30;29021;-95
2022/10/23 06:15:32;;;;;;;;;0.00;0.00;;;;;;;;4731100;30;30402;-95
2022/10/23 06:18:01;;;;;;;;;0.00;0.00;;;;;;;;4730800;30;29797;-95
2022/10/23 06:20:26;;;;;;;;;0.00;0.00;;;;;;;;4731064;30;28378;-95
2022/10/23 06:22:52;;;;;;;;;0.00;0.00;;;;;;;;4734822;30;28454;-95
2022/10/23 06:25:17;;;;;;;;;0.00;0.00;;;;;;;;4733880;30;29882;-95
2022/10/23 06:27:42;;;;;;;;;0.00;0.00;;;;;;;;4734125;30;29238;-94
2022/10/23 06:30:08;;;;;;;;;0.00;0.00;;;;;;;;4739522;29;28370;-95
2022/10/23 06:32:33;;;;;;;;;0.00;0.00;;;;;;;;4744114;30;28605;-95
2022/10/23 06:34:58;;;;;;;;;0.00;0.00;;;;;;;;4766579;29;28363;-94
2022/10/23 06:37:23;;;;;;;;;0.00;0.00;;;;;;;;4752068;29;28603;-94
2022/10/23 06:39:52;;;;;;;;;0.00;0.00;;;;;;;;4752453;29;28520;-95
2022/10/23 06:42:17;;;;;;;;;0.00;0.00;;;;;;;;4739147;30;28542;-94
2022/10/23 06:44:42;;;;;;;;;0.00;0.00;;;;;;;;4733133;30;30069;-93
2022/10/23 06:47:09;;;;;;;;;0.00;0.00;;;;;;;;4732791;30;28661;-93
2022/10/23 06:49:34;;;;;;;;;0.00;0.00;;;;;;;;4748159;30;28321;-87
2022/10/23 06:52:00;;;;;;;;;0.00;0.00;;;;;;;;4747639;30;28393;-87
2022/10/23 06:54:25;;;;;;;;;0.00;0.00;;;;;;;;4746963;30;28509;-86
2022/10/23 06:56:50;;;;;;;;;0.00;0.00;;;;;;;;4731473;30;28478;-85
2022/10/23 06:59:15;;;;;;;;;0.00;0.00;;;;;;;;4747353;30;28843;-87
2022/10/23 07:01:40;;;;;;;;;0.00;0.00;;;;;;;;4747307;30;29323;-84
2022/10/23 07:04:06;;;;;;;;;0.00;0.00;;;;;;;;4729836;30;29104;-85
2022/10/23 07:06:31;;;;;;;;;0.00;0.00;;;;;;;;4750623;29;28985;-85
2022/10/23 07:08:57;;;;;;;;;0.00;0.00;;;;;;;;4755941;29;29161;-85
2022/10/23 07:11:22;;;;;;;;;0.00;0.00;;;;;;;;4746639;29;28943;-85
2022/10/23 07:13:48;;;;;;;;;0.00;0.00;;;;;;;;4760356;29;29051;-84
2022/10/23 07:16:15;;;;;;;;;0.00;0.00;;;;;;;;4753999;29;28842;-84
2022/10/23 07:18:40;;;;;;;;;0.00;0.00;;;;;;;;4751107;29;29121;-84
2022/10/23 07:21:05;;;;;;;;;0.00;0.00;;;;;;;;4743687;29;29075;-83
2022/10/23 07:23:31;;;;;;;;;0.00;0.00;;;;;;;;4740386;29;30624;-85
2022/10/23 07:26:01;;;;;;;;;0.00;0.00;;;;;;;;4748626;29;30680;-89
2022/10/23 07:28:26;;;;;;;;;0.00;0.00;;;;;;;;4747960;29;29087;-87
2022/10/23 07:30:58;;;;;;;;;0.00;0.00;;;;;;;;4746453;30;28866;-87
2022/10/23 07:33:23;;;;;;;;;0.00;0.00;;;;;;;;4745809;30;29108;-87
2022/10/23 07:35:48;;;;;;;;;0.00;0.00;;;;;;;;4730180;30;30183;-85
2022/10/23 07:38:14;;;;;;;;;0.00;0.00;;;;;;;;4759621;29;29032;-87
2022/10/23 07:40:39;;;;;;;;;0.00;0.00;;;;;;;;4758504;29;29269;-92
2022/10/23 07:43:04;;;;;;;;;0.00;0.00;;;;;;;;4740281;29;31453;-88
2022/10/23 07:45:30;;;;;;;;;0.00;0.00;;;;;;;;4749824;29;29018;-86
2022/10/23 07:47:55;;;;;;;;;0.00;0.00;;;;;;;;4758680;29;28890;-86
2022/10/23 07:50:20;;;;;;;;;0.00;0.00;;;;;;;;4760384;29;28884;-86
2022/10/23 07:52:45;;;;;;;;;0.00;0.00;;;;;;;;4734692;29;30591;-87
2022/10/23 07:55:10;;;;;;;;;0.00;0.00;;;;;;;;4745758;29;29856;-87
2022/10/23 07:57:36;;;;;;;;;0.00;0.00;;;;;;;;4740491;29;29019;-87
2022/10/23 08:00:02;;;;;;;;;0.00;0.00;;;;;;;;4745436;30;29026;-88
2022/10/23 08:02:27;;;;;;;;;1.00;1.00;;;;;;;;4732688;30;30675;-86
2022/10/23 08:04:53;;;;;;;;;0.00;0.00;;;;;;;;4745775;29;29198;-86
2022/10/23 08:07:18;;;;;;;;;0.00;0.00;;;;;;;;4747551;29;29134;-86
2022/10/23 08:09:43;;;;;;;;;0.00;0.00;;;;;;;;4735066;29;28994;-87
2022/10/23 08:12:09;;;;;;;;;0.00;0.00;;;;;;;;4755293;29;29237;-86
2022/10/23 08:14:34;;;;;;;;;0.00;0.00;;;;;;;;4753634;29;29359;-86
2022/10/23 08:16:59;;;;;;;;;0.00;0.00;;;;;;;;4756075;29;31381;-86
2022/10/23 08:19:24;;;;;;;;;0.00;0.00;;;;;;;;4739757;29;29052;-87
2022/10/23 08:21:53;;;;;;;;;0.00;0.00;;;;;;;;4736359;29;30569;-86
2022/10/23 08:24:18;;;;;;;;;0.00;0.00;;;;;;;;4745679;29;29440;-88
2022/10/23 08:26:43;;;;;;;;;0.00;0.00;;;;;;;;4753243;29;29066;-86
2022/10/23 08:29:09;;;;;;;;;0.00;0.00;;;;;;;;4754110;29;28882;-86
2022/10/23 08:31:34;;;;;;;;;0.00;0.00;;;;;;;;4758776;29;29049;-86
2022/10/23 08:33:59;;;;;;;;;13.00;13.00;;;;;;;;4751026;29;28987;-86
2022/10/23 08:36:25;;;;;;;;;0.00;0.00;;;;;;;;4738041;29;29293;-86
2022/10/23 08:38:52;;;;;;;;;0.00;0.00;;;;;;;;4731397;30;29010;-86
2022/10/23 08:41:26;;;;;;;;;0.00;0.00;;;;;;;;4748984;29;29364;-85
2022/10/23 08:43:55;;;;;;;;;0.00;0.00;;;;;;;;4747255;29;29182;-88
2022/10/23 08:46:22;;;;;;;;;0.00;0.00;;;;;;;;4731288;30;29186;-87
2022/10/23 08:48:50;;;;;;;;;0.00;0.00;;;;;;;;4738633;30;29010;-88
2022/10/23 08:51:18;;;;;;;;;0.00;0.00;;;;;;;;4748203;29;29921;-87
2022/10/23 08:53:49;;;;;;;;;0.00;0.00;;;;;;;;4736993;29;29142;-86
2022/10/23 08:56:19;;;;;;;;;0.00;0.00;;;;;;;;4753638;29;29106;-86
2022/10/23 08:58:47;;;;;;;;;0.00;0.00;;;;;;;;4742523;29;29154;-86
2022/10/23 09:01:22;;;;;;;;;0.00;0.00;;;;;;;;4749019;29;29943;-86
2022/10/23 09:03:47;;;;;;;;;0.00;0.00;;;;;;;;4735444;30;29098;-85
2022/10/23 09:06:19;;;;;;;;;0.00;0.00;;;;;;;;4740319;29;29061;-86
2022/10/23 09:08:50;;;;;;;;;0.00;0.00;;;;;;;;4753069;29;29119;-86
2022/10/23 09:11:25;;;;;;;;;0.00;0.00;;;;;;;;4738655;29;30359;-86
2022/10/23 09:13:59;;;;;;;;;0.00;0.00;;;;;;;;4752763;29;29244;-86
2022/10/23 09:16:31;;;;;;;;;0.00;0.00;;;;;;;;4731155;29;29025;-86
2022/10/23 09:18:57;;;;;;;;;0.00;0.00;;;;;;;;4739493;29;30357;-86
2022/10/23 09:21:28;;;;;;;;;0.00;0.00;;;;;;;;4740207;29;30108;-86
2022/10/23 09:23:54;;;;;;;;;0.00;0.00;;;;;;;;4730293;30;29633;-87
2022/10/23 09:26:19;;;;;;;;;0.00;0.00;;;;;;;;4755711;29;29134;-86
2022/10/23 09:28:46;;;;;;;;;0.00;0.00;;;;;;;;4750470;29;29127;-86
2022/10/23 09:31:11;;;;;;;;;0.00;0.00;;;;;;;;4738477;29;29905;-86
2022/10/23 09:33:37;;;;;;;;;0.00;0.00;;;;;;;;4750983;29;29104;-86
2022/10/23 09:36:04;;;;;;;;;0.00;0.00;;;;;;;;4737132;29;29174;-86
2022/10/23 09:38:31;;;;;;;;;0.00;0.00;;;;;;;;4738934;30;29295;-86
2022/10/23 09:40:57;;;;;;;;;0.00;0.00;;;;;;;;4751362;29;29347;-86
2022/10/23 09:43:26;;;;;;;;;0.00;0.00;;;;;;;;4733839;29;29315;-86
2022/10/23 09:45:58;;;;;;;;;0.00;0.00;;;;;;;;4736464;30;29016;-85
2022/10/23 09:48:23;;;;;;;;;0.00;0.00;;;;;;;;4733260;30;29283;-86
2022/10/23 09:50:54;;;;;;;;;0.00;0.00;;;;;;;;4733439;30;30827;-85
2022/10/23 09:53:24;;;;;;;;;0.00;0.00;;;;;;;;4749117;29;29216;-85
2022/10/23 09:55:50;;;;;;;;;0.00;0.00;;;;;;;;4734344;30;29186;-86
2022/10/23 09:58:20;;;;;;;;;0.00;0.00;;;;;;;;4735233;29;29213;-88
2022/10/23 10:00:46;;;;;;;;;0.00;0.00;;;;;;;;4733472;30;30443;-88
2022/10/23 10:03:22;;;;;;;;;0.00;0.00;;;;;;;;4728711;30;29110;-88
2022/10/23 10:06:16;;;;;;;;;0.00;0.00;;;;;;;;4731678;29;29096;-85
2022/10/23 10:08:45;;;;;;;;;0.00;0.00;;;;;;;;4727857;29;29167;-85
2022/10/23 10:11:10;;;;;;;;;0.00;0.00;;;;;;;;4731930;29;31173;-85
2022/10/23 10:13:41;;;;;;;;;0.00;0.00;;;;;;;;4745245;30;29758;-86
2022/10/23 10:16:23;;;;;;;;;0.00;0.00;;;;;;;;4737858;29;29222;-86
2022/10/23 10:19:00;;;;;;;;;0.00;0.00;;;;;;;;4739471;30;29098;-83
2022/10/23 10:21:25;;;;;;;;;0.00;0.00;;;;;;;;4732336;29;31097;-84
2022/10/23 10:24:07;;;;;;;;;0.00;0.00;;;;;;;;4730916;30;28960;-89
2022/10/23 10:26:32;;;;;;;;;0.00;0.00;;;;;;;;4733601;29;29122;-89
2022/10/23 10:28:57;;;;;;;;;0.00;0.00;;;;;;;;4755872;29;29486;-89
2022/10/23 10:31:22;;;;;;;;;0.00;0.00;;;;;;;;4732049;29;29212;-89
2022/10/23 10:33:51;;;;;;;;;0.00;0.00;;;;;;;;4722530;29;29131;-88
2022/10/23 10:36:16;;;;;;;;;0.00;0.00;;;;;;;;4737170;29;28372;-88
2022/10/23 10:38:48;;;;;;;;;0.00;0.00;;;;;;;;4742387;30;29064;-89
2022/10/23 10:41:22;;;;;;;;;0.00;0.00;;;;;;;;4748140;29;29148;-89
2022/10/23 10:43:47;;;;;;;;;0.00;0.00;;;;;;;;4740769;30;29562;-89
2022/10/23 10:46:27;;;;;;;;;0.00;0.00;;;;;;;;4731044;30;29128;-90
2022/10/23 10:48:56;;;;;;;;;0.00;0.00;;;;;;;;4736865;29;29118;-89
2022/10/23 10:51:46;;;;;;;;;0.00;0.00;;;;;;;;4758672;29;29711;-88
2022/10/23 10:54:19;;;;;;;;;0.00;0.00;;;;;;;;4729468;30;29560;-89
2022/10/23 10:56:46;;;;;;;;;0.00;0.00;;;;;;;;4747072;29;28890;-89
2022/10/23 10:59:15;;;;;;;;;0.00;0.00;;;;;;;;4739578;29;29124;-88
2022/10/23 11:01:44;;;;;;;;;0.00;0.00;;;;;;;;4734114;29;30620;-87
2022/10/23 11:04:27;;;;;;;;;0.00;0.00;;;;;;;;4737382;30;29021;-88
2022/10/23 11:06:54;;;;;;;;;0.00;0.00;;;;;;;;4734914;29;28925;-88
2022/10/23 11:09:20;;;;;;;;;0.00;0.00;;;;;;;;4756183;29;29063;-89
2022/10/23 11:11:46;;;;;;;;;0.00;0.00;;;;;;;;4747938;29;28961;-91
2022/10/23 11:14:19;;;;;;;;;0.00;0.00;;;;;;;;4740255;29;29017;-89
2022/10/23 11:17:08;;;;;;;;;0.00;0.00;;;;;;;;4750798;29;29259;-89
2022/10/23 11:19:40;;;;;;;;;0.00;0.00;;;;;;;;4739530;29;28500;-88
2022/10/23 11:22:15;;;;;;;;;0.00;0.00;;;;;;;;4756974;29;30053;-88
2022/10/23 11:24:40;;;;;;;;;0.00;0.00;;;;;;;;4739107;29;29069;-88
2022/10/23 11:27:20;;;;;;;;;0.00;0.00;;;;;;;;4745810;29;28967;-87
2022/10/23 11:29:50;;;;;;;;;0.00;0.00;;;;;;;;4744583;29;29215;-88
2022/10/23 11:32:51;;;;;;;;;0.00;0.00;;;;;;;;4736452;30;29861;-88
2022/10/23 11:35:34;;;;;;;;;0.00;0.00;;;;;;;;4662608;30;29483;-89
2022/10/23 11:38:13;;;;;;;;;10.00;10.00;;;;;;;;4652153;30;29125;-86
2022/10/23 11:41:02;;;;;;;;;0.00;0.00;;;;;;;;4653784;30;28850;-88
2022/10/23 11:43:46;;;;;;;;;3.00;0.00;;;;;;;;4623237;30;31559;-88
2022/10/23 11:46:20;;;;;;;;;0.00;0.00;;;;;;;;4611133;30;30217;-89
2022/10/23 11:48:46;;;;;;;;;0.00;0.00;;;;;;;;4624484;30;29003;-89
2022/10/23 11:51:50;;;;;;;;;0.00;0.00;;;;;;;;4611059;30;29035;-88
2022/10/23 11:54:15;;;;;;;;;0.00;0.00;;;;;;;;4593044;30;30159;-88
2022/10/23 11:56:59;;;;;;;;;0.00;0.00;;;;;;;;4598719;30;29138;-88
2022/10/23 11:59:24;;;;;;;;;0.00;0.00;;;;;;;;4602250;30;29164;-90
2022/10/23 12:01:50;;;;;;;;;0.00;0.00;;;;;;;;4608294;30;28923;-89
2022/10/23 12:04:20;;;;;;;;;0.00;0.00;;;;;;;;4585149;30;30632;-89
2022/10/23 12:06:45;;;;;;;;;0.00;0.00;;;;;;;;4600220;30;29239;-89
2022/10/23 12:09:28;;;;;;;;;0.00;0.00;;;;;;;;4621735;30;29423;-88
2022/10/23 12:12:22;;;;;;;;;0.00;0.00;;;;;;;;4641886;30;29059;-89
2022/10/23 12:14:49;;;;;;;;;0.00;0.00;;;;;;;;4631759;30;29979;-90
2022/10/23 12:17:34;;;;;;;;;0.00;0.00;;;;;;;;4642003;30;30388;-89
2022/10/23 12:20:02;;;;;;;;;0.00;0.00;;;;;;;;4650468;30;29207;-88
2022/10/23 12:22:36;;;;;;;;;0.00;0.00;;;;;;;;4676369;30;29245;-88
2022/10/23 12:25:01;;;;;;;;;0.00;0.00;;;;;;;;4697910;30;31150;-89
2022/10/23 12:27:32;;;;;;;;;0.00;0.00;;;;;;;;4748794;29;29033;-88
2022/10/23 12:30:17;;;;;;;;;0.00;0.00;;;;;;;;4735009;29;28974;-88
2022/10/23 12:32:42;;;;;;;;;0.00;0.00;;;;;;;;4754108;29;29113;-89
2022/10/23 12:35:08;;;;;;;;;0.00;0.00;;;;;;;;4762161;29;29323;-88
2022/10/23 12:37:35;;;;;;;;;0.00;0.00;;;;;;;;4756385;29;29059;-89
2022/10/23 12:40:00;;;;;;;;;0.00;0.00;;;;;;;;4757351;29;29294;-90
2022/10/23 12:42:27;;;;;;;;;0.00;0.00;;;;;;;;4751103;29;29118;-89
2022/10/23 12:45:01;;;;;;;;;0.00;0.00;;;;;;;;4749488;29;30114;-89
2022/10/23 12:47:28;;;;;;;;;0.00;0.00;;;;;;;;4740475;30;29094;-89
2022/10/23 12:49:53;;;;;;;;;0.00;0.00;;;;;;;;4747186;29;28968;-89
2022/10/23 12:52:20;;;;;;;;;0.00;0.00;;;;;;;;4748057;29;28906;-89
2022/10/23 12:54:45;;;;;;;;;0.00;0.00;;;;;;;;4749349;29;29106;-88
2022/10/23 12:57:31;;;;;;;;;0.00;0.00;;;;;;;;4755581;29;28410;-90
2022/10/23 12:59:57;;;;;;;;;0.00;0.00;;;;;;;;4750729;29;28581;-89
2022/10/23 13:02:24;;;;;;;;;0.00;0.00;;;;;;;;4740038;30;29305;-90
2022/10/23 13:04:50;;;;;;;;;0.00;0.00;;;;;;;;4734574;29;31405;-89
2022/10/23 13:07:17;;;;;;;;;0.00;0.00;;;;;;;;4758087;29;28492;-88
2022/10/23 13:09:44;;;;;;;;;0.00;0.00;;;;;;;;4733538;29;28814;-89
2022/10/23 13:12:23;;;;;;;;;0.00;0.00;;;;;;;;4759222;29;28565;-89
2022/10/23 13:14:54;;;;;;;;;0.75;0.75;;;;;;;;4743611;29;31534;-88
2022/10/23 13:17:19;;;;;;;;;6.00;6.00;;;;;;;;4755444;29;27960;-89
2022/10/23 13:19:45;;;;;;;;;0.00;0.00;;;;;;;;4758460;29;27802;-88
2022/10/23 13:22:19;;;;;;;;;0.00;0.00;;;;;;;;4747757;29;28395;-88
2022/10/23 13:24:45;;;;;;;;;0.00;0.00;;;;;;;;4747876;29;28627;-89
2022/10/23 13:27:23;;;;;;;;;0.00;0.00;;;;;;;;4758045;29;28576;-89
2022/10/23 13:29:48;;;;;;;;;0.00;0.00;;;;;;;;4742458;29;28412;-89
2022/10/23 13:32:24;;;;;;;;;0.00;0.00;;;;;;;;4751426;29;28363;-89
2022/10/23 13:34:50;;;;;;;;;0.00;0.00;;;;;;;;4735077;29;31465;-89
2022/10/23 13:37:23;;;;;;;;;0.00;0.00;;;;;;;;4740048;30;30077;-90
2022/10/23 13:39:58;;;;;;;;;0.00;0.00;;;;;;;;4746615;29;28332;-89
2022/10/23 13:42:23;;;;;;;;;0.00;0.00;;;;;;;;4739181;29;28703;-89
2022/10/23 13:44:48;;;;;;;;;0.00;0.00;;;;;;;;4743119;29;29705;-89
2022/10/23 13:47:14;;;;;;;;;0.00;0.00;;;;;;;;4734874;29;29720;-88
2022/10/23 13:49:39;;;;;;;;;0.00;0.00;;;;;;;;4733365;29;28794;-88
2022/10/23 13:52:08;;;;;;;;;0.00;0.00;;;;;;;;4749194;29;28569;-88
2022/10/23 13:54:33;;;;;;;;;0.00;0.00;;;;;;;;4729299;29;30953;-87
2022/10/23 13:56:58;;;;;;;;;0.00;0.00;;;;;;;;4755019;29;28485;-89
2022/10/23 13:59:24;;;;;;;;;0.00;0.00;;;;;;;;4760139;29;29297;-89
2022/10/23 14:01:49;;;;;;;;;0.00;0.00;;;;;;;;4750821;29;28784;-91
2022/10/23 14:04:16;;;;;;;;;0.00;0.00;;;;;;;;4739558;29;28675;-91
2022/10/23 14:06:41;;;;;;;;;0.00;0.00;;;;;;;;4739646;29;28661;-91
2022/10/23 14:09:07;;;;;;;;;0.00;0.00;;;;;;;;4747676;29;28608;-89
2022/10/23 14:11:33;;;;;;;;;0.00;0.00;;;;;;;;4732464;29;28615;-89
2022/10/23 14:13:58;;;;;;;;;0.00;0.00;;;;;;;;4751580;29;28620;-91
2022/10/23 14:16:24;;;;;;;;;0.00;0.00;;;;;;;;4732330;29;28802;-88
2022/10/23 14:18:49;;;;;;;;;0.00;0.00;;;;;;;;4752934;29;28454;-90
2022/10/23 14:21:16;;;;;;;;;0.00;0.00;;;;;;;;4736595;29;28503;-89
2022/10/23 14:23:41;;;;;;;;;0.00;0.00;;;;;;;;4737408;30;30241;-90
2022/10/23 14:26:08;;;;;;;;;0.00;0.00;;;;;;;;4731781;30;28551;-88
2022/10/23 14:28:33;;;;;;;;;0.00;0.00;;;;;;;;4742231;29;28554;-89
2022/10/23 14:31:06;;;;;;;;;0.00;0.00;;;;;;;;4754441;29;28373;-89
2022/10/23 14:33:32;;;;;;;;;0.00;0.00;;;;;;;;4755250;29;30444;-88
2022/10/23 14:35:57;;;;;;;;;0.00;0.00;;;;;;;;4734230;30;28623;-89
2022/10/23 14:38:22;;;;;;;;;0.00;0.00;;;;;;;;4736854;29;28635;-89
2022/10/23 14:40:47;;;;;;;;;0.00;0.00;;;;;;;;4734336;29;28575;-89
2022/10/23 14:43:12;;;;;;;;;0.00;0.00;;;;;;;;4756237;29;29748;-89
2022/10/23 14:45:38;;;;;;;;;0.00;0.00;;;;;;;;4732401;29;28916;-89
2022/10/23 14:48:03;;;;;;;;;0.00;0.00;;;;;;;;4739212;29;28553;-89
2022/10/23 14:50:30;;;;;;;;;0.00;0.00;;;;;;;;4748713;29;28635;-89
2022/10/23 14:52:55;;;;;;;;;0.00;0.00;;;;;;;;4753898;29;29711;-90